createdAt,value
2019-01-24T00:01:48.153Z,-0.20
2019-01-24T00:04:24.366Z,-0.20
2019-01-24T00:07:01.148Z,-0.20
2019-01-24T00:09:40.590Z,-0.10
2019-01-24T00:12:22.585Z,-0.10
2019-01-24T00:14:59.152Z,-0.10
2019-01-24T00:17:35.153Z,0.00
2019-01-24T00:20:10.159Z,0.00
2019-01-24T00:22:49.053Z,-0.10
2019-01-24T00:25:25.728Z,-0.10
2019-01-24T00:28:04.156Z,-0.10
2019-01-24T00:30:41.161Z,-0.10
2019-01-24T00:33:20.457Z,-0.10
2019-01-24T00:35:56.509Z,-0.20
2019-01-24T00:38:32.976Z,-0.30
2019-01-24T00:41:10.058Z,-0.40
2019-01-24T00:43:46.120Z,-0.50
2019-01-24T00:46:22.582Z,-0.40
2019-01-24T00:49:03.767Z,-0.40
2019-01-24T00:51:43.503Z,-0.30
2019-01-24T00:54:23.050Z,-0.30
2019-01-24T00:57:00.163Z,-0.40
2019-01-24T00:59:38.641Z,-0.50
2019-01-24T01:02:18.590Z,-0.40
2019-01-24T01:04:56.496Z,-0.30
2019-01-24T01:07:37.467Z,-0.20
2019-01-24T01:10:20.073Z,-0.20
2019-01-24T01:12:58.999Z,-0.10
2019-01-24T01:15:39.767Z,-0.10
2019-01-24T01:18:28.112Z,-0.20
2019-01-24T01:21:08.683Z,-0.20
2019-01-24T01:23:51.170Z,-0.20
2019-01-24T01:26:28.572Z,-0.10
2019-01-24T01:29:12.008Z,-0.10
2019-01-24T01:31:51.168Z,0.10
2019-01-24T01:34:36.145Z,0.00
2019-01-24T01:37:13.691Z,0.00
2019-01-24T01:43:22.124Z,-0.20
2019-01-24T01:46:01.462Z,-0.10
2019-01-24T01:48:43.672Z,-0.20
2019-01-24T01:55:00.697Z,-0.10
2019-01-24T01:57:37.574Z,0.00
2019-01-24T02:00:19.571Z,-0.10
2019-01-24T02:06:13.175Z,-0.10
2019-01-24T02:08:51.193Z,0.10
2019-01-24T02:11:30.086Z,0.00
2019-01-24T02:14:07.596Z,-0.10
2019-01-24T02:16:44.662Z,-0.10
2019-01-24T02:19:21.171Z,-0.20
2019-01-24T02:21:57.387Z,-0.10
2019-01-24T02:24:36.517Z,-0.10
2019-01-24T02:27:14.182Z,0.00
2019-01-24T02:29:50.474Z,0.10
2019-01-24T02:32:27.977Z,0.10
2019-01-24T02:35:05.869Z,0.10
2019-01-24T02:37:41.723Z,0.10
2019-01-24T02:40:21.467Z,0.10
2019-01-24T02:42:59.568Z,0.10
2019-01-24T02:45:42.387Z,0.10
2019-01-24T02:48:18.648Z,0.20
2019-01-24T02:50:55.730Z,0.30
2019-01-24T02:53:35.883Z,0.30
2019-01-24T02:56:15.011Z,0.30
2019-01-24T02:58:54.182Z,0.20
2019-01-24T03:01:35.115Z,0.00
2019-01-24T03:04:17.177Z,-0.10
2019-01-24T03:06:52.180Z,-0.20
2019-01-24T03:09:31.683Z,-0.30
2019-01-24T03:12:10.606Z,-0.30
2019-01-24T03:14:47.689Z,-0.20
2019-01-24T03:17:24.772Z,-0.10
2019-01-24T03:20:02.192Z,0.00
2019-01-24T03:22:39.184Z,0.00
2019-01-24T03:25:14.785Z,-0.20
2019-01-24T03:27:53.098Z,-0.20
2019-01-24T03:30:29.771Z,-0.20
2019-01-24T03:33:12.207Z,-0.10
2019-01-24T03:35:54.581Z,-0.10
2019-01-24T03:38:36.990Z,-0.10
2019-01-24T03:41:20.418Z,-0.30
2019-01-24T03:44:00.191Z,-0.30
2019-01-24T03:46:49.121Z,-0.20
2019-01-24T03:49:31.036Z,-0.20
2019-01-24T03:52:19.877Z,-0.10
2019-01-24T03:55:04.750Z,-0.20
2019-01-24T03:57:43.464Z,-0.10
2019-01-24T04:00:25.661Z,-0.10
2019-01-24T04:03:07.186Z,-0.20
2019-01-24T04:05:46.783Z,-0.10
2019-01-24T04:12:08.637Z,-0.10
2019-01-24T04:14:48.685Z,-0.20
2019-01-24T04:17:30.475Z,-0.30
2019-01-24T04:23:48.544Z,-0.30
2019-01-24T04:26:31.968Z,-0.30
2019-01-24T04:29:11.316Z,-0.30
2019-01-24T04:31:47.198Z,-0.30
2019-01-24T04:34:21.195Z,-0.30
2019-01-24T04:40:33.900Z,-0.30
2019-01-24T04:46:42.128Z,-0.40
2019-01-24T04:49:19.826Z,-0.30
2019-01-24T04:51:58.748Z,-0.20
2019-01-24T04:54:34.606Z,-0.20
2019-01-24T04:57:12.710Z,-0.10
2019-01-24T04:59:51.427Z,-0.20
2019-01-24T05:02:30.198Z,-0.20
2019-01-24T05:05:13.995Z,-0.20
2019-01-24T05:07:51.072Z,-0.20
2019-01-24T05:10:29.797Z,-0.10
2019-01-24T05:13:12.812Z,-0.20
2019-01-24T05:15:51.734Z,-0.10
2019-01-24T05:18:43.976Z,-0.30
2019-01-24T05:21:35.807Z,-0.30
2019-01-24T05:24:15.204Z,-0.40
2019-01-24T05:26:57.743Z,-0.40
2019-01-24T05:29:41.205Z,-0.40
2019-01-24T05:32:26.160Z,-0.30
2019-01-24T05:35:02.709Z,-0.50
2019-01-24T05:37:40.615Z,-0.50
2019-01-24T05:46:16.211Z,-0.40
2019-01-24T05:48:53.208Z,-0.40
2019-01-24T05:51:27.214Z,-0.40
2019-01-24T05:54:06.729Z,-0.30
2019-01-24T05:56:44.622Z,-0.30
2019-01-24T05:59:22.213Z,-0.30
2019-01-24T06:02:04.858Z,-0.30
2019-01-24T06:04:48.565Z,-0.40
2019-01-24T06:07:29.129Z,-0.40
2019-01-24T06:10:13.785Z,-0.20
2019-01-24T06:13:20.639Z,-0.20
2019-01-24T06:15:57.030Z,-0.10
2019-01-24T06:18:40.892Z,-0.20
2019-01-24T06:21:20.244Z,-0.20
2019-01-24T06:24:25.763Z,-0.30
2019-01-24T06:27:28.641Z,-0.20
2019-01-24T06:34:00.339Z,-0.10
2019-01-24T06:40:55.964Z,-0.10
2019-01-24T06:47:28.388Z,-0.20
2019-01-24T06:50:36.773Z,-0.30
2019-01-24T06:54:11.386Z,-0.30
2019-01-24T06:57:19.615Z,-0.40
2019-01-24T07:03:42.581Z,-0.20
2019-01-24T07:10:02.906Z,-0.20
2019-01-24T07:12:40.425Z,-0.30
2019-01-24T07:15:32.018Z,-0.20
2019-01-24T07:18:13.809Z,-0.30
2019-01-24T07:20:56.011Z,-0.40
2019-01-24T07:27:06.290Z,-0.30
2019-01-24T07:36:22.321Z,-0.50
2019-01-24T07:42:55.547Z,-0.50
2019-01-24T07:45:38.148Z,-0.60
2019-01-24T07:48:21.414Z,-0.80
2019-01-24T07:54:40.065Z,-0.70
2019-01-24T08:00:45.821Z,-0.50
2019-01-24T08:06:54.986Z,-0.40
2019-01-24T08:09:43.216Z,-0.50
2019-01-24T08:12:32.420Z,-0.50
2019-01-24T08:18:41.840Z,-0.40
2019-01-24T08:21:41.861Z,-0.40
2019-01-24T08:24:26.110Z,-0.30
2019-01-24T08:30:44.173Z,-0.30
2019-01-24T08:33:46.034Z,-0.20
2019-01-24T08:36:27.454Z,-0.40
2019-01-24T08:39:14.522Z,-0.40
2019-01-24T08:42:14.143Z,-0.50
2019-01-24T08:45:00.029Z,-0.40
2019-01-24T08:47:39.977Z,-0.50
2019-01-24T08:50:34.431Z,-0.50
2019-01-24T08:53:16.864Z,-0.40
2019-01-24T08:59:44.968Z,-0.40
2019-01-24T09:02:28.399Z,-0.30
2019-01-24T09:05:11.011Z,-0.30
2019-01-24T09:07:50.347Z,-0.20
2019-01-24T09:10:31.931Z,-0.10
2019-01-24T09:13:18.025Z,-0.10
2019-01-24T09:16:06.165Z,-0.20
2019-01-24T09:19:01.063Z,-0.20
2019-01-24T09:21:38.972Z,-0.40
2019-01-24T09:24:24.239Z,-0.40
2019-01-24T09:27:02.437Z,-0.40
2019-01-24T09:29:44.954Z,-0.40
2019-01-24T09:32:32.075Z,-0.40
2019-01-24T09:35:18.434Z,-0.20
2019-01-24T09:37:59.457Z,-0.30
2019-01-24T09:40:41.952Z,-0.40
2019-01-24T09:43:33.790Z,-0.20
2019-01-24T09:46:14.445Z,0.00
2019-01-24T09:48:57.994Z,0.00
2019-01-24T09:58:12.781Z,0.10
2019-01-24T10:01:06.053Z,-0.20
2019-01-24T10:03:57.263Z,-0.30
2019-01-24T10:07:07.311Z,-0.10
2019-01-24T10:13:16.977Z,-0.30
2019-01-24T10:16:04.319Z,-0.40
2019-01-24T10:18:49.373Z,-0.50
2019-01-24T10:21:27.879Z,-0.40
2019-01-24T10:24:06.804Z,-0.40
2019-01-24T10:26:46.752Z,-0.30
2019-01-24T10:29:33.256Z,-0.10
2019-01-24T10:32:21.496Z,-0.10
2019-01-24T10:35:01.958Z,-0.10
2019-01-24T10:37:42.318Z,0.00
2019-01-24T10:40:29.052Z,0.10
2019-01-24T10:43:13.080Z,0.00
2019-01-24T10:46:00.406Z,-0.10
2019-01-24T10:54:52.058Z,0.00
2019-01-24T10:57:50.226Z,0.00
2019-01-24T11:06:49.994Z,-0.20
2019-01-24T11:09:27.365Z,-0.10
2019-01-24T11:12:04.508Z,0.10
2019-01-24T11:14:42.963Z,0.20
2019-01-24T11:17:22.091Z,0.30
2019-01-24T11:24:00.018Z,0.30
2019-01-24T11:26:36.514Z,0.30
2019-01-24T11:29:11.723Z,0.40
2019-01-24T11:35:19.134Z,0.40
2019-01-24T11:37:59.492Z,0.60
2019-01-24T11:40:39.501Z,0.80
2019-01-24T11:46:58.937Z,0.70
2019-01-24T11:49:37.043Z,0.70
2019-01-24T11:52:13.101Z,0.70
2019-01-24T11:58:29.930Z,0.60
2019-01-24T12:01:06.509Z,0.50
2019-01-24T12:03:44.101Z,0.50
2019-01-24T12:10:03.504Z,0.50
2019-01-24T12:12:39.510Z,0.50
2019-01-24T12:15:21.509Z,0.60
2019-01-24T12:18:00.987Z,0.50
2019-01-24T12:20:38.879Z,0.50
2019-01-24T12:26:55.913Z,0.40
2019-01-24T12:33:01.072Z,0.20
2019-01-24T12:35:37.128Z,0.30
2019-01-24T12:38:14.007Z,0.30
2019-01-24T12:40:50.509Z,0.30
2019-01-24T12:43:27.350Z,0.30
2019-01-24T12:46:06.287Z,0.30
2019-01-24T12:48:41.935Z,0.30
2019-01-24T12:51:21.515Z,0.20
2019-01-24T12:53:57.927Z,0.30
2019-01-24T12:56:36.034Z,0.40
2019-01-24T12:59:11.518Z,0.40
2019-01-24T13:01:48.151Z,0.40
2019-01-24T13:04:29.124Z,0.30
2019-01-24T13:07:07.842Z,0.20
2019-01-24T13:09:44.542Z,0.20
2019-01-24T13:12:26.103Z,0.20
2019-01-24T13:18:46.628Z,0.40
2019-01-24T13:25:18.678Z,0.50
2019-01-24T13:27:54.873Z,0.60
2019-01-24T13:30:31.577Z,0.50
2019-01-24T13:36:48.781Z,0.50
2019-01-24T13:43:07.557Z,0.50
2019-01-24T13:49:23.883Z,0.30
2019-01-24T13:55:05.124Z,0.20
2019-01-24T14:01:22.726Z,0.20
2019-01-24T14:03:52.846Z,0.10
2019-01-24T14:09:45.132Z,0.30
2019-01-24T14:16:08.690Z,0.40
2019-01-24T14:22:26.546Z,0.50
2019-01-24T14:25:02.130Z,0.50
2019-01-24T14:27:38.666Z,0.50
2019-01-24T14:33:55.495Z,0.30
2019-01-24T14:40:17.146Z,0.30
2019-01-24T14:42:52.695Z,0.20
2019-01-24T14:45:29.143Z,0.10
2019-01-24T14:51:33.695Z,0.10
2019-01-24T14:57:13.868Z,0.10
2019-01-24T15:03:19.027Z,0.10
2019-01-24T15:09:23.202Z,0.10
2019-01-24T15:12:01.061Z,0.00
2019-01-24T15:14:35.684Z,-0.10
2019-01-24T15:20:39.612Z,-0.20
2019-01-24T15:26:44.566Z,-0.20
2019-01-24T15:32:51.771Z,-0.20
2019-01-24T15:39:13.111Z,-0.20
2019-01-24T15:41:48.763Z,-0.20
2019-01-24T15:44:28.710Z,-0.10
2019-01-24T15:50:48.405Z,-0.10
2019-01-24T15:53:25.200Z,-0.20
2019-01-24T15:56:03.242Z,-0.10
2019-01-24T15:58:41.700Z,-0.10
2019-01-24T16:01:19.804Z,-0.10
2019-01-24T16:03:59.203Z,-0.10
2019-01-24T16:06:36.427Z,-0.20
2019-01-24T16:09:16.363Z,-0.20
2019-01-24T16:11:53.457Z,-0.30
2019-01-24T16:14:32.788Z,-0.30
2019-01-24T16:17:09.666Z,-0.20
2019-01-24T16:19:55.759Z,-0.10
2019-01-24T16:22:34.481Z,-0.20
2019-01-24T16:28:44.770Z,-0.20
2019-01-24T16:31:22.862Z,-0.20
2019-01-24T16:37:36.326Z,-0.20
2019-01-24T16:43:45.467Z,-0.20
2019-01-24T16:46:24.814Z,-0.20
2019-01-24T16:49:06.423Z,-0.20
2019-01-24T16:51:41.013Z,-0.20
2019-01-24T16:54:15.495Z,0.00
2019-01-24T16:56:51.528Z,-0.10
2019-01-24T16:59:31.504Z,-0.10
2019-01-24T17:02:07.090Z,0.00
2019-01-24T17:04:46.495Z,0.00
2019-01-24T17:07:21.495Z,-0.20
2019-01-24T17:09:57.105Z,-0.30
2019-01-24T17:12:37.055Z,-0.30
2019-01-24T17:15:13.927Z,-0.30
2019-01-24T17:17:56.046Z,-0.30
2019-01-24T17:20:32.185Z,-0.30
2019-01-24T17:23:14.801Z,-0.50
2019-01-24T17:25:52.084Z,-0.50
2019-01-24T17:32:23.250Z,-0.50
2019-01-24T17:38:43.804Z,-0.50
2019-01-24T17:41:25.798Z,-0.60
2019-01-24T17:47:32.805Z,-0.60
2019-01-24T17:53:39.802Z,-0.60
2019-01-24T17:56:20.331Z,-0.70
2019-01-24T17:58:56.390Z,-0.60
2019-01-24T18:05:02.368Z,-0.60
2019-01-24T18:15:11.237Z,-0.50
2019-01-24T18:21:29.299Z,-0.50
2019-01-24T18:27:48.179Z,-0.60
2019-01-24T18:30:27.313Z,-0.50
2019-01-24T18:33:04.797Z,-0.60
2019-01-24T18:39:21.015Z,-0.70
2019-01-24T18:41:59.739Z,-0.70
2019-01-24T18:44:48.287Z,-0.70
2019-01-24T18:51:05.321Z,-0.80
2019-01-24T18:57:14.833Z,-0.80
2019-01-24T18:59:51.249Z,-0.90
2019-01-24T19:02:29.168Z,-0.90
2019-01-24T19:08:36.355Z,-0.90
2019-01-24T19:11:13.232Z,-0.90
2019-01-24T19:13:51.339Z,-0.90
2019-01-24T19:16:31.696Z,-0.90
2019-01-24T19:19:15.333Z,-0.90
2019-01-24T19:22:05.521Z,-0.90
2019-01-24T19:24:40.758Z,-0.90
2019-01-24T19:27:16.611Z,-0.90
2019-01-24T19:29:56.563Z,-0.90
2019-01-24T19:39:16.701Z,-1.00
2019-01-24T19:45:13.112Z,-1.00
2019-01-24T20:00:52.873Z,-1.00
2019-01-24T20:06:47.582Z,-1.00
2019-01-24T20:19:05.389Z,-1.00
2019-01-24T20:21:58.532Z,-1.00
2019-01-24T20:25:07.534Z,-1.00
2019-01-24T20:27:52.118Z,-1.00
2019-01-24T20:30:35.655Z,-1.10
2019-01-24T20:33:44.680Z,-1.10
2019-01-24T20:40:19.737Z,-1.10
2019-01-24T20:54:05.491Z,-1.20
2019-01-24T20:56:53.632Z,-1.20
2019-01-24T21:13:38.138Z,-1.20
2019-01-24T21:22:42.081Z,-1.20
2019-01-24T21:25:27.807Z,-1.10
2019-01-24T21:28:06.528Z,-1.10
2019-01-24T21:31:20.690Z,-1.10
2019-01-24T21:34:02.674Z,-1.10
2019-01-24T21:36:44.058Z,-1.20
2019-01-24T21:46:15.231Z,-1.10
2019-01-24T21:48:54.784Z,-1.10
2019-01-24T21:51:42.105Z,-1.20
2019-01-24T22:11:21.046Z,-1.10
2019-01-24T22:26:55.844Z,-1.10
2019-01-24T22:33:47.231Z,-1.10
2019-01-24T22:41:07.606Z,-1.10
2019-01-24T22:44:02.712Z,-1.20
2019-01-24T23:22:59.269Z,-1.10
2019-01-24T23:25:32.664Z,-1.20
2019-01-24T23:32:18.988Z,-1.30
2019-01-24T23:50:45.555Z,-1.30
